createdAt,value
2022-10-05T00:00:08.658Z,66.54
2022-10-05T00:01:08.650Z,66.54
2022-10-05T00:02:08.724Z,66.54
2022-10-05T00:03:08.627Z,66.54
2022-10-05T00:04:08.708Z,66.54
2022-10-05T00:05:08.635Z,66.54
2022-10-05T00:06:08.595Z,66.54
2022-10-05T00:07:08.584Z,66.54
2022-10-05T00:08:08.573Z,66.54
2022-10-05T00:09:08.591Z,66.54
2022-10-05T00:10:08.551Z,66.54
2022-10-05T00:11:08.547Z,66.54
2022-10-05T00:12:08.530Z,66.54
2022-10-05T00:13:08.522Z,66.54
2022-10-05T00:14:08.558Z,66.54
2022-10-05T00:15:08.501Z,66.54
2022-10-05T00:16:08.511Z,66.54
2022-10-05T00:17:08.479Z,66.54
2022-10-05T00:18:08.475Z,66.54
2022-10-05T00:19:08.485Z,66.44
2022-10-05T00:20:08.447Z,66.44
2022-10-05T00:21:08.435Z,66.44
2022-10-05T00:22:08.426Z,66.44
2022-10-05T00:23:08.417Z,66.44
2022-10-05T00:24:08.436Z,66.44
2022-10-05T00:25:08.396Z,66.54
2022-10-05T00:26:08.382Z,66.44
2022-10-05T00:27:08.373Z,66.44
2022-10-05T00:28:08.387Z,66.44
2022-10-05T00:29:08.351Z,66.54
2022-10-05T00:30:08.389Z,66.44
2022-10-05T00:31:08.331Z,66.44
2022-10-05T00:32:08.393Z,66.44
2022-10-05T00:33:08.306Z,66.44
2022-10-05T00:34:08.297Z,66.44
2022-10-05T00:35:08.311Z,66.44
2022-10-05T00:36:08.276Z,66.44
2022-10-05T00:37:08.264Z,66.44
2022-10-05T00:38:08.252Z,66.44
2022-10-05T00:39:08.242Z,66.44
2022-10-05T00:40:08.260Z,66.44
2022-10-05T00:41:08.224Z,66.44
2022-10-05T00:42:08.210Z,66.54
2022-10-05T00:43:08.202Z,66.44
2022-10-05T00:44:08.192Z,66.44
2022-10-05T00:45:08.206Z,66.44
2022-10-05T00:46:08.297Z,66.44
2022-10-05T00:47:08.162Z,66.44
2022-10-05T00:48:08.147Z,66.44
2022-10-05T00:49:08.138Z,66.44
2022-10-05T00:50:08.151Z,66.44
2022-10-05T00:51:08.118Z,66.44
2022-10-05T00:52:08.116Z,66.44
2022-10-05T00:53:08.096Z,66.54
2022-10-05T00:54:08.082Z,66.54
2022-10-05T00:55:08.105Z,66.44
2022-10-05T00:56:08.061Z,66.54
2022-10-05T00:57:08.051Z,66.44
2022-10-05T00:58:08.039Z,66.54
2022-10-05T00:59:08.030Z,66.44
2022-10-05T01:00:08.061Z,66.44
2022-10-05T01:01:08.098Z,66.54
2022-10-05T01:02:08.058Z,66.44
2022-10-05T01:03:07.986Z,66.44
2022-10-05T01:04:07.975Z,66.44
2022-10-05T01:05:07.965Z,66.44
2022-10-05T01:06:07.979Z,66.44
2022-10-05T01:07:07.944Z,66.44
2022-10-05T01:08:07.935Z,66.44
2022-10-05T01:09:07.924Z,66.44
2022-10-05T01:10:07.911Z,66.44
2022-10-05T01:11:07.936Z,66.44
2022-10-05T01:12:07.889Z,66.44
2022-10-05T01:13:07.883Z,66.44
2022-10-05T01:14:07.868Z,66.44
2022-10-05T01:15:07.862Z,66.44
2022-10-05T01:16:07.905Z,66.44
2022-10-05T01:17:07.837Z,66.44
2022-10-05T01:18:07.848Z,66.44
2022-10-05T01:19:07.816Z,66.44
2022-10-05T01:20:07.804Z,66.44
2022-10-05T01:21:07.822Z,66.44
2022-10-05T01:22:07.781Z,66.44
2022-10-05T01:23:07.774Z,66.44
2022-10-05T01:24:07.767Z,66.44
2022-10-05T01:25:07.753Z,66.44
2022-10-05T01:26:07.782Z,66.44
2022-10-05T01:27:07.730Z,66.44
2022-10-05T01:28:07.770Z,66.44
2022-10-05T01:29:07.709Z,66.44
2022-10-05T01:30:07.700Z,66.44
2022-10-05T01:31:07.730Z,66.44
2022-10-05T01:32:07.702Z,66.44
2022-10-05T01:33:07.668Z,66.44
2022-10-05T01:34:11.320Z,66.44
2022-10-05T01:35:07.645Z,66.44
2022-10-05T01:36:07.633Z,66.44
2022-10-05T01:37:07.650Z,66.44
2022-10-05T01:38:07.613Z,66.44
2022-10-05T01:39:07.603Z,66.44
2022-10-05T01:40:07.591Z,66.44
2022-10-05T01:41:07.585Z,66.44
2022-10-05T01:42:07.599Z,66.44
2022-10-05T01:43:07.562Z,66.44
2022-10-05T01:44:07.549Z,66.44
2022-10-05T01:45:07.541Z,66.44
2022-10-05T01:46:07.616Z,66.44
2022-10-05T01:47:07.543Z,66.44
2022-10-05T01:48:07.507Z,66.44
2022-10-05T01:49:07.499Z,66.44
2022-10-05T01:50:07.506Z,66.44
2022-10-05T01:51:07.476Z,66.44
2022-10-05T01:52:07.489Z,66.44
2022-10-05T01:53:07.455Z,66.44
2022-10-05T01:54:07.442Z,66.44
2022-10-05T01:55:07.432Z,66.44
2022-10-05T01:56:07.422Z,66.44
2022-10-05T01:57:07.454Z,66.44
2022-10-05T01:58:07.401Z,66.44
2022-10-05T01:59:07.389Z,66.44
2022-10-05T02:00:07.377Z,66.44
2022-10-05T02:01:07.451Z,66.44
2022-10-05T02:02:07.443Z,66.44
2022-10-05T02:03:07.384Z,66.44
2022-10-05T02:04:07.335Z,66.44
2022-10-05T02:05:07.327Z,66.44
2022-10-05T02:06:07.335Z,66.44
2022-10-05T02:07:07.304Z,66.44
2022-10-05T02:08:07.318Z,66.44
2022-10-05T02:09:07.282Z,66.44
2022-10-05T02:10:07.271Z,66.44
2022-10-05T02:11:07.265Z,66.44
2022-10-05T02:12:07.250Z,66.44
2022-10-05T02:13:07.265Z,66.44
2022-10-05T02:14:07.228Z,66.44
2022-10-05T02:15:07.219Z,66.44
2022-10-05T02:16:07.321Z,66.44
2022-10-05T02:17:07.202Z,66.44
2022-10-05T02:18:07.213Z,66.44
2022-10-05T02:19:07.177Z,66.44
2022-10-05T02:20:07.165Z,66.44
2022-10-05T02:21:07.155Z,66.44
2022-10-05T02:22:07.175Z,66.44
2022-10-05T02:23:07.161Z,66.34
2022-10-05T02:24:07.125Z,66.34
2022-10-05T02:25:07.112Z,66.44
2022-10-05T02:26:07.100Z,66.44
2022-10-05T02:27:07.091Z,66.44
2022-10-05T02:28:07.158Z,66.44
2022-10-05T02:29:07.071Z,66.44
2022-10-05T02:30:07.060Z,66.44
2022-10-05T02:31:07.126Z,66.44
2022-10-05T02:32:07.036Z,66.44
2022-10-05T02:33:07.053Z,66.44
2022-10-05T02:34:07.016Z,66.44
2022-10-05T02:35:07.005Z,66.44
2022-10-05T02:36:06.996Z,66.44
2022-10-05T02:37:06.985Z,66.44
2022-10-05T02:38:07.041Z,66.44
2022-10-05T02:39:06.961Z,66.44
2022-10-05T02:40:06.956Z,66.44
2022-10-05T02:41:06.940Z,66.44
2022-10-05T02:42:06.931Z,66.44
2022-10-05T02:43:06.924Z,66.44
2022-10-05T02:44:06.943Z,66.44
2022-10-05T02:45:06.898Z,66.44
2022-10-05T02:46:06.950Z,66.44
2022-10-05T02:47:06.878Z,66.44
2022-10-05T02:48:06.866Z,66.44
2022-10-05T02:49:06.885Z,66.44
2022-10-05T02:50:06.848Z,66.44
2022-10-05T02:51:06.834Z,66.44
2022-10-05T02:52:06.829Z,66.44
2022-10-05T02:53:06.813Z,66.44
2022-10-05T02:54:06.852Z,66.44
2022-10-05T02:55:06.792Z,66.44
2022-10-05T02:56:06.785Z,66.44
2022-10-05T02:57:06.770Z,66.44
2022-10-05T02:58:06.767Z,66.44
2022-10-05T02:59:06.776Z,66.44
2022-10-05T03:00:06.741Z,66.44
2022-10-05T03:01:06.799Z,66.44
2022-10-05T03:02:06.755Z,66.44
2022-10-05T03:03:06.707Z,66.44
2022-10-05T03:04:06.724Z,66.44
2022-10-05T03:05:06.688Z,66.44
2022-10-05T03:06:06.680Z,66.44
2022-10-05T03:07:06.666Z,66.44
2022-10-05T03:08:06.656Z,66.44
2022-10-05T03:09:06.686Z,66.44
2022-10-05T03:10:06.674Z,66.44
2022-10-05T03:11:06.624Z,66.44
2022-10-05T03:12:06.613Z,66.44
2022-10-05T03:13:06.601Z,66.44
2022-10-05T03:14:06.593Z,66.44
2022-10-05T03:15:06.607Z,66.44
2022-10-05T03:16:06.646Z,66.44
2022-10-05T03:17:06.562Z,66.44
2022-10-05T03:18:06.548Z,66.44
2022-10-05T03:19:06.536Z,66.44
2022-10-05T03:20:06.554Z,66.44
2022-10-05T03:21:06.516Z,66.44
2022-10-05T03:22:06.511Z,66.44
2022-10-05T03:23:06.496Z,66.44
2022-10-05T03:24:06.488Z,66.44
2022-10-05T03:25:06.500Z,66.44
2022-10-05T03:26:06.488Z,66.44
2022-10-05T03:27:06.453Z,66.44
2022-10-05T03:28:06.500Z,66.44
2022-10-05T03:29:06.432Z,66.44
2022-10-05T03:30:06.450Z,66.44
2022-10-05T03:31:06.511Z,66.44
2022-10-05T03:32:06.400Z,66.44
2022-10-05T03:33:06.390Z,66.44
2022-10-05T03:34:06.383Z,66.44
2022-10-05T03:35:06.393Z,66.44
2022-10-05T03:36:06.358Z,66.44
2022-10-05T03:37:06.353Z,66.44
2022-10-05T03:38:06.336Z,66.44
2022-10-05T03:39:06.337Z,66.44
2022-10-05T03:40:06.351Z,66.44
2022-10-05T03:41:06.303Z,66.44
2022-10-05T03:42:06.324Z,66.44
2022-10-05T03:43:06.285Z,66.44
2022-10-05T03:44:06.273Z,66.44
2022-10-05T03:45:06.263Z,66.44
2022-10-05T03:46:07.348Z,66.44
2022-10-05T03:47:06.240Z,66.34
2022-10-05T03:48:06.230Z,66.44
2022-10-05T03:49:06.220Z,66.44
2022-10-05T03:50:06.213Z,66.44
2022-10-05T03:51:06.227Z,66.44
2022-10-05T03:52:06.190Z,66.34
2022-10-05T03:53:06.177Z,66.44
2022-10-05T03:54:06.170Z,66.44
2022-10-05T03:55:06.156Z,66.44
2022-10-05T03:56:06.177Z,66.44
2022-10-05T03:57:06.134Z,66.44
2022-10-05T03:58:06.147Z,66.44
2022-10-05T03:59:06.114Z,66.44
2022-10-05T04:00:06.109Z,66.44
2022-10-05T04:01:06.186Z,66.44
2022-10-05T04:02:06.084Z,66.44
2022-10-05T04:03:06.070Z,66.44
2022-10-05T04:04:06.064Z,66.44
2022-10-05T04:05:06.050Z,66.44
2022-10-05T04:06:06.070Z,66.34
2022-10-05T04:07:06.028Z,66.34
2022-10-05T04:08:06.018Z,66.34
2022-10-05T04:09:06.006Z,66.44
2022-10-05T04:10:05.999Z,66.34
2022-10-05T04:11:06.023Z,66.44
2022-10-05T04:12:05.982Z,66.44
2022-10-05T04:13:05.964Z,66.44
2022-10-05T04:14:05.980Z,66.44
2022-10-05T04:15:05.947Z,66.34
2022-10-05T04:16:05.995Z,66.34
2022-10-05T04:17:05.925Z,66.44
2022-10-05T04:18:05.912Z,66.44
2022-10-05T04:19:05.901Z,66.34
2022-10-05T04:20:05.890Z,66.44
2022-10-05T04:21:05.913Z,66.44
2022-10-05T04:22:05.871Z,66.44
2022-10-05T04:23:05.859Z,66.34
2022-10-05T04:24:05.851Z,66.44
2022-10-05T04:25:05.837Z,66.44
2022-10-05T04:26:05.859Z,66.44
2022-10-05T04:27:05.815Z,66.44
2022-10-05T04:28:05.853Z,66.44
2022-10-05T04:29:05.797Z,66.44
2022-10-05T04:30:05.859Z,66.44
2022-10-05T04:31:05.864Z,66.44
2022-10-05T04:32:05.795Z,66.44
2022-10-05T04:33:05.752Z,66.44
2022-10-05T04:34:05.746Z,66.44
2022-10-05T04:35:05.733Z,66.44
2022-10-05T04:36:05.724Z,66.44
2022-10-05T04:37:05.740Z,66.44
2022-10-05T04:38:05.699Z,66.44
2022-10-05T04:39:05.692Z,66.44
2022-10-05T04:40:05.679Z,66.44
2022-10-05T04:41:05.667Z,66.44
2022-10-05T04:42:05.690Z,66.44
2022-10-05T04:43:05.648Z,66.44
2022-10-05T04:44:05.646Z,66.44
2022-10-05T04:45:05.628Z,66.44
2022-10-05T04:46:05.640Z,66.44
2022-10-05T04:47:05.724Z,66.44
2022-10-05T04:48:05.595Z,66.44
2022-10-05T04:49:05.582Z,66.44
2022-10-05T04:50:05.574Z,66.44
2022-10-05T04:51:05.562Z,66.44
2022-10-05T04:52:05.584Z,66.44
2022-10-05T04:53:05.540Z,66.44
2022-10-05T04:54:05.531Z,66.44
2022-10-05T04:55:05.525Z,66.44
2022-10-05T04:56:05.512Z,66.44
2022-10-05T04:57:05.528Z,66.44
2022-10-05T04:58:05.490Z,66.44
2022-10-05T04:59:05.478Z,66.44
2022-10-05T05:00:05.470Z,66.44
2022-10-05T05:01:05.520Z,66.44
2022-10-05T05:02:05.502Z,66.44
2022-10-05T05:03:05.434Z,66.44
2022-10-05T05:04:05.507Z,66.44
2022-10-05T05:05:05.412Z,66.44
2022-10-05T05:06:16.796Z,66.44
2022-10-05T05:07:06.422Z,66.44
2022-10-05T05:08:05.384Z,66.44
2022-10-05T05:09:05.390Z,66.44
2022-10-05T05:10:05.362Z,66.34
2022-10-05T05:11:05.350Z,66.34
2022-10-05T05:12:05.370Z,66.44
2022-10-05T05:13:05.331Z,66.44
2022-10-05T05:14:05.318Z,66.34
2022-10-05T05:15:05.307Z,66.44
2022-10-05T05:16:05.328Z,66.44
2022-10-05T05:17:07.607Z,66.44
2022-10-05T05:18:06.301Z,66.34
2022-10-05T05:19:05.264Z,66.34
2022-10-05T05:20:05.255Z,66.34
2022-10-05T05:21:05.247Z,66.44
2022-10-05T05:22:05.236Z,66.44
2022-10-05T05:23:05.252Z,66.34
2022-10-05T05:24:05.217Z,66.34
2022-10-05T05:25:05.201Z,66.44
2022-10-05T05:26:05.195Z,66.44
2022-10-05T05:27:05.181Z,66.34
2022-10-05T05:28:05.252Z,66.34
2022-10-05T05:29:05.163Z,66.34
2022-10-05T05:30:05.150Z,66.34
2022-10-05T05:31:05.207Z,66.34
2022-10-05T05:32:05.130Z,66.34
2022-10-05T05:33:05.146Z,66.34
2022-10-05T05:34:05.131Z,66.44
2022-10-05T05:35:05.095Z,66.44
2022-10-05T05:36:05.086Z,66.34
2022-10-05T05:37:05.073Z,66.34
2022-10-05T05:38:05.096Z,66.34
2022-10-05T05:39:05.053Z,66.34
2022-10-05T05:40:05.050Z,66.34
2022-10-05T05:41:05.031Z,66.34
2022-10-05T05:42:05.025Z,66.34
2022-10-05T05:43:05.041Z,66.34
2022-10-05T05:44:05.001Z,66.34
2022-10-05T05:45:05.019Z,66.34
2022-10-05T05:46:04.981Z,66.34
2022-10-05T05:47:05.593Z,66.34
2022-10-05T05:48:04.960Z,66.34
2022-10-05T05:49:04.947Z,66.34
2022-10-05T05:50:07.345Z,66.34
2022-10-05T05:51:04.925Z,66.34
2022-10-05T05:52:04.918Z,66.34
2022-10-05T05:53:04.908Z,66.34
2022-10-05T05:54:04.895Z,66.34
2022-10-05T05:55:04.914Z,66.34
2022-10-05T05:56:04.873Z,66.34
2022-10-05T05:57:04.861Z,66.34
2022-10-05T05:58:04.852Z,66.34
2022-10-05T05:59:04.842Z,66.34
2022-10-05T06:00:04.947Z,66.34
2022-10-05T06:01:04.819Z,66.34
2022-10-05T06:02:04.913Z,66.34
2022-10-05T06:03:04.933Z,66.34
2022-10-05T06:04:04.788Z,66.44
2022-10-05T06:05:04.776Z,66.34
2022-10-05T06:06:04.820Z,66.34
2022-10-05T06:07:04.760Z,66.34
2022-10-05T06:08:04.746Z,66.34
2022-10-05T06:09:04.738Z,66.34
2022-10-05T06:10:04.727Z,66.34
2022-10-05T06:11:04.744Z,66.34
2022-10-05T06:12:04.713Z,66.34
2022-10-05T06:13:04.694Z,66.34
2022-10-05T06:14:04.686Z,66.34
2022-10-05T06:15:04.680Z,66.34
2022-10-05T06:16:04.785Z,66.34
2022-10-05T06:17:04.650Z,66.34
2022-10-05T06:18:04.641Z,66.44
2022-10-05T06:19:04.628Z,66.34
2022-10-05T06:20:05.653Z,66.34
2022-10-05T06:21:04.638Z,66.44
2022-10-05T06:22:04.623Z,66.44
2022-10-05T06:23:04.587Z,66.44
2022-10-05T06:24:04.586Z,66.44
2022-10-05T06:25:04.565Z,66.44
2022-10-05T06:26:09.766Z,66.34
2022-10-05T06:27:05.543Z,66.44
2022-10-05T06:28:04.628Z,66.44
2022-10-05T06:29:04.526Z,66.44
2022-10-05T06:30:04.513Z,66.44
2022-10-05T06:31:04.505Z,66.44
2022-10-05T06:32:04.591Z,66.44
2022-10-05T06:33:04.480Z,66.44
2022-10-05T06:34:04.473Z,66.44
2022-10-05T06:35:04.460Z,66.44
2022-10-05T06:36:04.449Z,66.44
2022-10-05T06:37:04.468Z,66.44
2022-10-05T06:38:04.450Z,66.44
2022-10-05T06:39:04.419Z,66.54
2022-10-05T06:40:04.409Z,66.54
2022-10-05T06:41:04.397Z,66.54
2022-10-05T06:42:04.418Z,66.44
2022-10-05T06:43:04.375Z,66.44
2022-10-05T06:44:04.367Z,66.54
2022-10-05T06:45:04.353Z,66.54
2022-10-05T06:46:04.435Z,66.44
2022-10-05T06:47:04.363Z,66.44
2022-10-05T06:48:05.566Z,66.44
2022-10-05T06:49:04.311Z,66.44
2022-10-05T06:50:04.300Z,66.44
2022-10-05T06:51:04.295Z,66.44
2022-10-05T06:52:04.308Z,66.44
2022-10-05T06:53:04.272Z,66.44
2022-10-05T06:54:04.316Z,66.44
2022-10-05T06:55:04.248Z,66.44
2022-10-05T06:56:04.238Z,66.44
2022-10-05T06:57:04.263Z,66.34
2022-10-05T06:58:04.217Z,66.44
2022-10-05T06:59:04.206Z,66.54
2022-10-05T07:00:04.195Z,66.64
2022-10-05T07:01:04.290Z,66.64
2022-10-05T07:02:04.244Z,66.74
2022-10-05T07:03:04.168Z,66.84
2022-10-05T07:04:04.157Z,66.84
2022-10-05T07:05:04.145Z,66.91
2022-10-05T07:06:04.131Z,66.81
2022-10-05T07:07:04.153Z,66.91
2022-10-05T07:08:04.110Z,66.91
2022-10-05T07:09:04.100Z,66.91
2022-10-05T07:10:04.114Z,66.91
2022-10-05T07:11:04.081Z,66.91
2022-10-05T07:12:05.746Z,66.91
2022-10-05T07:13:04.060Z,66.81
2022-10-05T07:14:04.047Z,66.81
2022-10-05T07:15:04.039Z,66.81
2022-10-05T07:16:04.152Z,66.58
2022-10-05T07:17:04.024Z,66.58
2022-10-05T07:18:04.034Z,66.47
2022-10-05T07:19:03.994Z,66.38
2022-10-05T07:20:03.997Z,66.38
2022-10-05T07:21:03.973Z,66.38
2022-10-05T07:22:03.993Z,66.28
2022-10-05T07:23:03.986Z,66.28
2022-10-05T07:24:03.942Z,66.17
2022-10-05T07:25:03.932Z,66.17
2022-10-05T07:26:03.977Z,66.17
2022-10-05T07:27:03.911Z,66.17
2022-10-05T07:28:03.967Z,66.28
2022-10-05T07:29:03.892Z,66.38
2022-10-05T07:30:03.878Z,66.38
2022-10-05T07:31:03.917Z,66.38
2022-10-05T07:32:03.857Z,66.38
2022-10-05T07:33:03.876Z,66.38
2022-10-05T07:34:03.837Z,66.38
2022-10-05T07:35:03.835Z,66.28
2022-10-05T07:36:03.814Z,66.24
2022-10-05T07:37:03.807Z,66.24
2022-10-05T07:38:03.827Z,66.24
2022-10-05T07:39:03.783Z,66.35
2022-10-05T07:40:03.771Z,66.35
2022-10-05T07:41:03.762Z,66.35
2022-10-05T07:42:03.788Z,66.35
2022-10-05T07:43:03.775Z,66.35
2022-10-05T07:44:05.738Z,66.24
2022-10-05T07:45:03.724Z,66.35
2022-10-05T07:46:03.849Z,66.35
2022-10-05T07:47:03.701Z,66.35
2022-10-05T07:48:03.725Z,66.44
2022-10-05T07:49:03.682Z,66.44
2022-10-05T07:50:03.667Z,66.44
2022-10-05T07:51:03.664Z,66.55
2022-10-05T07:52:03.645Z,66.55
2022-10-05T07:53:03.635Z,66.55
2022-10-05T07:54:03.655Z,66.55
2022-10-05T07:55:03.617Z,66.64
2022-10-05T07:56:03.603Z,66.64
2022-10-05T07:57:03.595Z,66.64
2022-10-05T07:58:03.615Z,66.75
2022-10-05T07:59:03.601Z,66.75
2022-10-05T08:00:03.565Z,66.85
2022-10-05T08:01:03.558Z,66.75
2022-10-05T08:02:03.708Z,66.75
2022-10-05T08:03:03.609Z,66.75
2022-10-05T08:04:03.547Z,66.85
2022-10-05T08:05:03.513Z,66.85
2022-10-05T08:06:03.497Z,66.85
2022-10-05T08:07:03.491Z,66.85
2022-10-05T08:08:03.476Z,66.85
2022-10-05T08:09:03.496Z,66.95
2022-10-05T08:10:03.466Z,66.95
2022-10-05T08:11:03.450Z,66.95
2022-10-05T08:12:03.434Z,66.95
2022-10-05T08:13:03.424Z,66.95
2022-10-05T08:14:03.469Z,67.05
2022-10-05T08:15:03.405Z,67.05
2022-10-05T08:16:03.476Z,67.05
2022-10-05T08:17:03.386Z,67.05
2022-10-05T08:18:03.374Z,67.05
2022-10-05T08:19:03.393Z,67.14
2022-10-05T08:20:03.350Z,67.35
2022-10-05T08:21:03.340Z,67.14
2022-10-05T08:22:03.332Z,67.25
2022-10-05T08:23:03.320Z,67.14
2022-10-05T08:24:03.351Z,67.14
2022-10-05T08:25:03.309Z,67.14
2022-10-05T08:26:03.287Z,67.14
2022-10-05T08:27:03.280Z,67.14
2022-10-05T08:28:03.344Z,67.14
2022-10-05T08:29:03.256Z,67.14
2022-10-05T08:30:03.309Z,67.14
2022-10-05T08:31:03.282Z,67.14
2022-10-05T08:32:03.226Z,67.14
2022-10-05T08:33:03.216Z,67.05
2022-10-05T08:34:03.203Z,67.14
2022-10-05T08:35:03.223Z,67.45
2022-10-05T08:36:03.181Z,67.35
2022-10-05T08:37:03.173Z,67.35
2022-10-05T08:38:03.162Z,67.35
2022-10-05T08:39:03.153Z,67.25
2022-10-05T08:40:03.177Z,67.25
2022-10-05T08:41:03.129Z,67.25
2022-10-05T08:42:03.118Z,67.25
2022-10-05T08:43:03.110Z,67.14
2022-10-05T08:44:03.099Z,67.14
2022-10-05T08:45:03.125Z,67.14
2022-10-05T08:46:03.221Z,67.14
2022-10-05T08:47:03.070Z,67.14
2022-10-05T08:48:03.054Z,67.14
2022-10-05T08:49:03.049Z,67.14
2022-10-05T08:50:03.062Z,67.14
2022-10-05T08:51:03.033Z,67.14
2022-10-05T08:52:03.012Z,67.14
2022-10-05T08:53:03.022Z,67.14
2022-10-05T08:54:02.990Z,67.05
2022-10-05T08:55:03.011Z,67.05
2022-10-05T08:56:02.969Z,67.05
2022-10-05T08:57:02.961Z,67.05
2022-10-05T08:58:02.952Z,67.05
2022-10-05T08:59:02.945Z,67.05
2022-10-05T09:00:02.959Z,67.05
2022-10-05T09:01:02.991Z,67.05
2022-10-05T09:02:02.949Z,67.05
2022-10-05T09:03:02.974Z,67.05
2022-10-05T09:04:02.887Z,67.05
2022-10-05T09:05:02.910Z,66.95
2022-10-05T09:06:02.866Z,66.85
2022-10-05T09:07:02.858Z,66.85
2022-10-05T09:08:02.845Z,66.85
2022-10-05T09:09:02.834Z,66.85
2022-10-05T09:10:02.853Z,66.85
2022-10-05T09:11:02.820Z,66.85
2022-10-05T09:12:02.804Z,66.85
2022-10-05T09:13:02.795Z,66.85
2022-10-05T09:14:02.782Z,66.85
2022-10-05T09:15:24.140Z,66.75
2022-10-05T09:16:03.840Z,66.85
2022-10-05T09:17:02.750Z,66.75
2022-10-05T09:18:02.761Z,66.75
2022-10-05T09:19:02.731Z,66.75
2022-10-05T09:20:02.717Z,66.75
2022-10-05T09:21:02.741Z,66.75
2022-10-05T09:22:02.696Z,66.75
2022-10-05T09:23:02.688Z,66.75
2022-10-05T09:24:02.677Z,66.85
2022-10-05T09:25:02.668Z,66.85
2022-10-05T09:26:02.685Z,66.85
2022-10-05T09:27:02.647Z,66.85
2022-10-05T09:28:02.699Z,66.95
2022-10-05T09:29:02.624Z,66.95
2022-10-05T09:30:02.612Z,66.95
2022-10-05T09:31:02.735Z,66.95
2022-10-05T09:32:02.601Z,67.05
2022-10-05T09:33:02.583Z,67.05
2022-10-05T09:34:02.610Z,67.05
2022-10-05T09:35:02.566Z,67.05
2022-10-05T09:36:02.582Z,67.05
2022-10-05T09:37:02.540Z,67.14
2022-10-05T09:38:02.527Z,67.14
2022-10-05T09:39:02.518Z,67.25
2022-10-05T09:40:02.510Z,67.25
2022-10-05T09:41:02.527Z,67.25
2022-10-05T09:42:02.485Z,67.14
2022-10-05T09:43:02.479Z,67.25
2022-10-05T09:44:02.468Z,67.14
2022-10-05T09:45:02.457Z,67.14
2022-10-05T09:46:02.516Z,67.25
2022-10-05T09:47:02.436Z,67.25
2022-10-05T09:48:02.424Z,67.25
2022-10-05T09:49:02.415Z,67.25
2022-10-05T09:50:02.501Z,67.25
2022-10-05T09:51:02.393Z,67.25
2022-10-05T09:52:02.412Z,67.25
2022-10-05T09:53:02.372Z,67.14
2022-10-05T09:54:02.365Z,67.25
2022-10-05T09:55:02.349Z,67.25
2022-10-05T09:56:02.341Z,67.25
2022-10-05T09:57:02.360Z,67.25
2022-10-05T09:58:02.320Z,67.25
2022-10-05T09:59:02.308Z,67.35
2022-10-05T10:00:02.381Z,67.25
2022-10-05T10:01:09.640Z,67.25
2022-10-05T10:02:03.408Z,67.25
2022-10-05T10:03:02.441Z,67.25
2022-10-05T10:04:02.258Z,67.14
2022-10-05T10:05:02.244Z,67.14
2022-10-05T10:06:02.262Z,67.14
2022-10-05T10:07:02.255Z,67.14
2022-10-05T10:08:02.214Z,67.14
2022-10-05T10:09:02.200Z,67.14
2022-10-05T10:10:02.194Z,67.14
2022-10-05T10:11:02.182Z,67.14
2022-10-05T10:12:02.208Z,67.14
2022-10-05T10:13:02.167Z,67.25
2022-10-05T10:14:02.148Z,67.25
2022-10-05T10:15:03.107Z,67.25
2022-10-05T10:16:02.251Z,67.25
2022-10-05T10:17:02.145Z,67.25
2022-10-05T10:18:02.111Z,67.25
2022-10-05T10:19:02.097Z,67.25
2022-10-05T10:20:02.087Z,67.14
2022-10-05T10:21:02.074Z,67.14
2022-10-05T10:22:02.128Z,67.14
2022-10-05T10:23:02.056Z,67.14
2022-10-05T10:24:02.048Z,67.14
2022-10-05T10:25:02.033Z,67.14
2022-10-05T10:26:02.033Z,67.14
2022-10-05T10:27:02.014Z,67.14
2022-10-05T10:28:02.110Z,67.14
2022-10-05T10:29:01.994Z,67.14
2022-10-05T10:30:01.999Z,67.14
2022-10-05T10:31:02.040Z,67.14
2022-10-05T10:32:02.048Z,67.14
2022-10-05T10:33:01.986Z,67.14
2022-10-05T10:34:01.938Z,67.14
2022-10-05T10:35:01.927Z,67.14
2022-10-05T10:36:06.036Z,67.14
2022-10-05T10:37:02.905Z,67.14
2022-10-05T10:38:01.976Z,67.14
2022-10-05T10:39:01.886Z,67.18
2022-10-05T10:40:01.876Z,67.14
2022-10-05T10:41:01.864Z,67.18
2022-10-05T10:42:01.861Z,67.18
2022-10-05T10:43:01.878Z,67.18
2022-10-05T10:44:01.835Z,67.14
2022-10-05T10:45:01.825Z,67.18
2022-10-05T10:46:01.848Z,67.18
2022-10-05T10:47:01.801Z,67.18
2022-10-05T10:48:01.826Z,67.18
2022-10-05T10:49:01.785Z,67.18
2022-10-05T10:50:01.776Z,67.18
2022-10-05T10:51:01.758Z,67.18
2022-10-05T10:52:01.750Z,67.18
2022-10-05T10:53:01.818Z,67.18
2022-10-05T10:54:01.752Z,67.18
2022-10-05T10:55:01.721Z,67.18
2022-10-05T10:56:01.747Z,67.18
2022-10-05T10:57:01.696Z,67.18
2022-10-05T10:58:01.713Z,67.28
2022-10-05T10:59:01.693Z,67.18
2022-10-05T11:00:01.681Z,67.18
2022-10-05T11:01:01.652Z,67.18
2022-10-05T11:02:01.728Z,67.18
2022-10-05T11:03:01.779Z,67.18
2022-10-05T11:04:01.656Z,67.18
2022-10-05T11:05:01.618Z,67.18
2022-10-05T11:06:01.603Z,67.18
2022-10-05T11:07:01.596Z,67.28
2022-10-05T11:08:01.580Z,67.28
2022-10-05T11:09:01.609Z,67.18
2022-10-05T11:10:01.583Z,67.18
2022-10-05T11:11:01.562Z,67.18
2022-10-05T11:12:01.541Z,67.18
2022-10-05T11:13:01.532Z,67.18
2022-10-05T11:14:01.548Z,67.18
2022-10-05T11:15:01.507Z,67.18
2022-10-05T11:16:01.650Z,67.18
2022-10-05T11:17:01.485Z,67.18
2022-10-05T11:18:01.477Z,67.18
2022-10-05T11:19:01.499Z,67.18
2022-10-05T11:20:05.202Z,67.28
2022-10-05T11:21:01.450Z,67.28
2022-10-05T11:22:01.431Z,67.28
2022-10-05T11:23:01.424Z,67.28
2022-10-05T11:24:01.450Z,67.28
2022-10-05T11:25:01.402Z,67.28
2022-10-05T11:26:01.440Z,67.28
2022-10-05T11:27:01.387Z,67.28
2022-10-05T11:28:01.396Z,67.18
2022-10-05T11:29:01.359Z,67.18
2022-10-05T11:30:01.378Z,67.18
2022-10-05T11:31:01.415Z,67.18
2022-10-05T11:32:01.336Z,67.18
2022-10-05T11:33:01.320Z,67.28
2022-10-05T11:34:01.306Z,67.38
2022-10-05T11:35:01.324Z,67.38
2022-10-05T11:36:01.284Z,67.38
2022-10-05T11:37:01.275Z,67.38
2022-10-05T11:38:01.263Z,67.38
2022-10-05T11:39:01.255Z,67.28
2022-10-05T11:40:01.271Z,67.28
2022-10-05T11:41:01.232Z,67.28
2022-10-05T11:42:01.246Z,67.28
2022-10-05T11:43:01.209Z,67.28
2022-10-05T11:44:06.102Z,67.25
2022-10-05T11:45:02.219Z,67.38
2022-10-05T11:46:01.239Z,67.38
2022-10-05T11:47:01.169Z,67.35
2022-10-05T11:48:01.160Z,67.35
2022-10-05T11:49:01.148Z,67.35
2022-10-05T11:50:01.174Z,67.25
2022-10-05T11:51:01.129Z,67.25
2022-10-05T11:52:01.115Z,67.25
2022-10-05T11:53:01.106Z,67.25
2022-10-05T11:54:01.095Z,67.25
2022-10-05T11:55:16.385Z,67.25
2022-10-05T11:56:02.102Z,67.25
2022-10-05T11:57:01.663Z,67.25
2022-10-05T11:58:01.075Z,67.25
2022-10-05T11:59:01.045Z,67.25
2022-10-05T12:00:01.032Z,67.25
2022-10-05T12:01:01.067Z,67.25
2022-10-05T12:02:01.012Z,67.25
2022-10-05T12:03:01.169Z,67.25
2022-10-05T12:04:01.146Z,67.28
2022-10-05T12:05:00.981Z,67.14
2022-10-05T12:06:00.998Z,67.14
2022-10-05T12:07:00.958Z,67.14
2022-10-05T12:08:00.945Z,67.25
2022-10-05T12:09:00.938Z,67.25
2022-10-05T12:10:00.928Z,67.25
2022-10-05T12:11:00.946Z,67.25
2022-10-05T12:12:00.904Z,67.25
2022-10-05T12:13:01.387Z,67.25
2022-10-05T12:14:00.903Z,67.25
2022-10-05T12:15:00.872Z,67.25
2022-10-05T12:16:00.933Z,67.25
2022-10-05T12:17:00.853Z,67.25
2022-10-05T12:18:00.844Z,67.25
2022-10-05T12:19:00.830Z,67.25
2022-10-05T12:20:00.819Z,67.25
2022-10-05T12:21:00.841Z,67.25
2022-10-05T12:22:00.799Z,67.25
2022-10-05T12:23:01.305Z,67.25
2022-10-05T12:24:00.777Z,67.14
2022-10-05T12:25:00.771Z,67.14
2022-10-05T12:26:00.795Z,67.25
2022-10-05T12:27:00.748Z,67.35
2022-10-05T12:28:00.774Z,67.35
2022-10-05T12:29:00.725Z,67.35
2022-10-05T12:30:00.769Z,67.35
2022-10-05T12:31:00.768Z,67.45
2022-10-05T12:32:00.728Z,67.35
2022-10-05T12:33:02.268Z,67.35
2022-10-05T12:34:00.670Z,67.45
2022-10-05T12:35:02.231Z,67.45
2022-10-05T12:36:00.650Z,67.45
2022-10-05T12:37:04.685Z,67.45
2022-10-05T12:38:00.629Z,67.45
2022-10-05T12:39:00.621Z,67.45
2022-10-05T12:40:00.611Z,67.45
2022-10-05T12:41:00.598Z,67.35
2022-10-05T12:42:00.617Z,67.45
2022-10-05T12:43:00.579Z,67.45
2022-10-05T12:44:00.565Z,67.35
2022-10-05T12:45:00.558Z,67.35
2022-10-05T12:46:00.616Z,67.45
2022-10-05T12:47:00.564Z,67.35
2022-10-05T12:48:00.526Z,67.35
2022-10-05T12:49:00.516Z,67.35
2022-10-05T12:50:00.526Z,67.35
2022-10-05T12:51:00.496Z,67.25
2022-10-05T12:52:00.517Z,67.25